Latest Weather Observations for Young

IDN60801

Issued at 7:05 am EDT Tuesday 25 November 2014 (issued every 30 minutes, with the page automatically refreshed every 10 minutes)

About weather observations | Map of weather stations | Latest weather observations for NSW | Other Formats
Station Details ID: 073138 Name: YOUNG AIRPORT Lat: -34.25 Lon: 148.25 Height: 379.6 m
Data from the previous 72 hours. | See also: Recent months at Young
Date/Time
EDT
Temp
°C
App
Temp
°C
Dew
Point
Rel
Hum
%
Delta-T
°C
Wind Press
QNH
hPa
Press
MSL
hPa
Rain
since 9 am
mm
Dir
 
Spd
km/h
Gust
km/h
Spd
kts
Gust
kts
25/07:00am 12.2 7.2 4.7 60 3.5 SW 20 30 11 16 1016.5 1015.5 0.6
25/06:30am 12.3 8.3 6.8 69 2.7 SW 17 24 9 13 1016.0 1015.0 0.6
25/06:00am 12.9 8.7 8.2 73 2.4 SW 20 30 11 16 1015.3 1014.3 0.6
25/05:30am 14.1 9.6 8.5 69 2.9 SW 22 32 12 17 1014.7 1013.6 0.6
25/05:00am 14.5 11.2 10.9 79 1.9 SW 19 32 10 17 1013.8 1012.8 0.6
25/04:30am 15.0 10.2 10.2 73 2.6 SW 26 39 14 21 1013.1 1012.1 0.6
25/04:00am 15.5 10.1 12.1 80 1.9 SW 32 43 17 23 1012.9 1011.8 0.6
25/03:42am 16.6 12.1 12.6 77 2.3 SW 28 44 15 24 1012.3 1011.2 0.6
25/03:30am 18.1 17.4 15.5 85 1.6 WSW 13 20 7 11 1012.1 1011.0 0.6
25/03:00am 18.2 17.6 15.6 85 1.6 W 13 20 7 11 1012.1 1011.0 0.6
25/02:30am 18.2 18.4 15.8 86 1.4 W 9 15 5 8 1012.0 1010.9 0.6
25/02:00am 18.6 18.8 15.7 83 1.7 WNW 9 17 5 9 1011.7 1010.7 0.6
25/01:30am 18.4 18.5 15.5 83 1.7 NW 9 13 5 7 1011.8 1010.8 0.6
25/01:00am 17.8 18.3 14.9 83 1.7 WNW 6 7 3 4 1011.4 1010.4 0.6
25/12:30am 17.9 19.6 15.3 85 1.5 CALM 0 0 0 0 1011.3 1010.3 0.6
25/12:00am 18.3 20.1 15.4 83 1.7 CALM 0 0 0 0 1011.5 1010.5 0.6
 
Date/Time
EDT
Temp
°C
App
Temp
°C
Dew
Point
Rel
Hum
%
Delta-T
°C
Wind Press
QNH
hPa
Press
MSL
hPa
Rain
since 9 am
mm
Dir
 
Spd
km/h
Gust
km/h
Spd
kts
Gust
kts
24/11:30pm 18.7 20.0 15.2 80 2.1 E 2 9 1 5 1011.3 1010.3 0.6
24/11:00pm 19.3 19.9 15.2 77 2.5 S 6 9 3 5 1012.0 1010.9 0.6
24/10:30pm 19.9 19.4 14.9 73 3.0 S 11 15 6 8 1011.7 1010.7 0.6
24/10:28pm 19.9 19.0 14.9 73 3.0 SSW 13 15 7 8 1011.7 1010.7 0.6
24/10:00pm 20.8 15.0 14.9 69 3.5 WSW 39 63 21 34 1012.5 1011.4 0.6
24/09:54pm 21.6 16.3 15.2 67 3.9 WSW 37 63 20 34 1012.7 1011.6 0.6
24/09:47pm 22.9 19.8 17.6 72 3.3 WNW 30 61 16 33 1011.5 1010.5 0.6
24/09:30pm 19.5 22.1 17.6 89 1.2 CALM 0 0 0 0 1010.5 1009.4 0.6
24/09:00pm 19.7 22.2 17.3 86 1.5 CALM 0 0 0 0 1010.6 1009.5 0.6
24/08:30pm 20.5 23.0 17.3 82 2.0 CALM 0 0 0 0 1010.4 1009.3 0.6
24/08:00pm 21.7 24.5 17.9 79 2.4 CALM 0 0 0 0 1009.8 1008.7 0.6
24/07:30pm 22.2 23.6 17.8 76 2.8 NNE 7 9 4 5 1009.3 1008.2 0.6
24/07:00pm 22.9 23.8 17.6 72 3.3 N 9 11 5 6 1008.8 1007.8 0.6
24/06:30pm 23.5 24.8 17.5 69 3.8 N 7 9 4 5 1008.3 1007.2 0.6
24/06:00pm 23.5 25.3 17.5 69 3.8 E 4 7 2 4 1008.2 1007.1 0.6
24/05:30pm 23.6 25.3 18.0 71 3.6 SE 6 9 3 5 1008.6 1007.6 0.6
24/05:00pm 22.4 23.7 18.4 78 2.6 ESE 9 13 5 7 1009.2 1008.1 0.6
24/04:30pm 22.2 23.1 19.2 83 1.9 SSE 13 19 7 10 1010.1 1009.0 0.6
24/04:00pm 20.7 21.5 19.0 90 1.1 SSE 13 17 7 9 1010.8 1009.8 0.6
24/03:30pm 20.3 20.7 18.2 88 1.3 SSE 13 19 7 10 1011.5 1010.5 0.6
24/03:00pm 20.8 20.5 18.2 85 1.6 S 17 22 9 12 1012.2 1011.1 0.2
24/02:30pm 21.4 20.3 17.2 77 2.6 S 19 24 10 13 1012.3 1011.2 0.0
24/02:00pm 22.5 20.0 17.0 71 3.4 S 26 35 14 19 1012.1 1011.0 0.0
24/01:30pm 23.3 21.4 16.8 67 4.1 S 22 30 12 16 1012.4 1011.3 0.0
24/01:00pm 23.5 22.3 17.0 67 4.1 S 19 26 10 14 1012.7 1011.6 0.0
24/12:30pm 24.1 22.3 15.6 59 5.2 S 19 22 10 12 1013.0 1012.0 0.0
24/12:00pm 25.2 22.4 14.3 50 6.6 SSE 22 30 12 16 1012.3 1011.2 0.0
24/11:30am 26.4 23.1 13.9 46 7.5 SSE 24 32 13 17 1012.4 1011.3 0.0
24/11:00am 26.3 23.8 14.1 47 7.4 SSE 20 26 11 14 1012.9 1011.8 0.0
24/10:30am 26.3 24.3 13.8 46 7.5 SSE 17 24 9 13 1013.1 1012.1 0.0
24/10:00am 26.3 24.3 13.8 46 7.5 SE 17 24 9 13 1013.1 1012.1 0.0
24/09:30am 25.9 22.3 13.1 45 7.6 SSE 24 30 13 16 1013.7 1012.7 0.0
24/09:00am 26.0 22.7 12.8 44 7.8 SE 22 30 12 16 1013.7 1012.7 0.4
24/08:30am 25.2 22.3 12.8 46 7.3 SE 20 30 11 16 1014.0 1013.0 0.4
24/08:00am 25.0 23.4 12.9 47 7.1 SE 13 17 7 9 1014.4 1013.4 0.4
24/07:30am 24.2 23.6 13.4 51 6.4 SSE 9 13 5 7 1014.0 1013.0 0.4
24/07:00am 23.3 22.7 13.5 54 5.8 SSE 9 13 5 7 1013.8 1012.8 0.4
24/06:30am 22.9 21.7 13.9 57 5.3 S 13 17 7 9 1013.9 1012.9 0.4
24/06:00am 22.6 22.1 13.9 58 5.2 SSW 9 11 5 6 1013.7 1012.7 0.4
24/05:30am 22.8 22.6 13.6 56 5.4 SE 7 9 4 5 1013.2 1012.2 0.4
24/05:00am 22.7 22.0 14.3 59 5.0 S 11 15 6 8 1013.5 1012.5 0.4
24/04:30am 21.4 20.6 14.1 63 4.3 WSW 11 13 6 7 1013.6 1012.6 0.4
24/04:00am 22.6 22.7 13.9 58 5.2 ESE 6 13 3 7 1013.9 1012.9 0.4
24/03:30am 22.2 22.4 14.6 62 4.6 NNE 7 13 4 7 1014.3 1013.3 0.4
24/03:00am 23.6 22.8 12.9 51 6.3 NNE 9 13 5 7 1014.0 1013.0 0.4
24/02:30am 24.3 22.7 12.9 49 6.7 ESE 13 19 7 10 1012.7 1011.6 0.4
24/02:26am 23.4 22.4 13.3 53 5.9 SE 11 17 6 9 1013.3 1012.3 0.4
24/02:00am 24.7 23.2 13.0 48 6.9 WSW 13 20 7 11 1015.4 1014.4 0.4
24/01:30am 24.4 24.2 13.6 51 6.4 W 7 11 4 6 1014.7 1013.6 0.4
24/01:00am 23.4 23.8 14.7 58 5.2 SW 6 9 3 5 1013.3 1012.3 0.4
24/12:30am 25.1 24.3 13.0 47 7.1 S 9 9 5 5 1013.1 1012.1 0.4
24/12:00am 25.6 24.9 13.1 46 7.4 S 9 11 5 6 1012.7 1011.6 0.4
 
Date/Time
EDT
Temp
°C
App
Temp
°C
Dew
Point
Rel
Hum
%
Delta-T
°C
Wind Press
QNH
hPa
Press
MSL
hPa
Rain
since 9 am
mm
Dir
 
Spd
km/h
Gust
km/h
Spd
kts
Gust
kts
23/11:30pm 26.3 23.9 12.7 43 8.0 S 17 20 9 11 1013.4 1012.4 0.4
23/11:00pm 28.0 24.9 11.5 35 9.6 SW 19 26 10 14 1013.9 1012.9 0.4
23/10:30pm 28.3 25.2 12.2 37 9.5 SW 20 26 11 14 1014.2 1013.2 0.4
23/10:00pm 25.0 24.0 14.5 52 6.3 S 13 19 7 10 1013.7 1012.7 0.4
23/09:30pm 23.6 24.2 15.9 62 4.7 W 7 11 4 6 1014.0 1013.0 0.4
23/09:00pm 21.2 21.1 16.0 72 3.2 SW 11 15 6 8 1012.2 1011.1 0.4
23/08:30pm 22.7 24.1 16.5 68 3.8 S 4 7 2 4 1011.1 1010.1 0.4
23/08:00pm 24.3 24.7 16.3 61 5.0 SW 9 13 5 7 1011.1 1010.1 0.4
23/07:30pm 26.9 26.9 14.3 46 7.7 NNW 7 9 4 5 1011.1 1010.1 0.4
23/07:00pm 27.9 27.4 15.9 48 7.5 SW 13 19 7 10 1010.6 1009.5 0.4
23/06:30pm 28.4 29.5 15.7 46 7.9 NE 4 17 2 9 1011.0 1010.0 0.4
23/06:00pm 29.0 29.3 14.4 41 9.0 NNE 6 17 3 9 1010.8 1009.8 0.4
23/05:55pm 29.4 26.8 13.2 37 9.8 WNW 19 28 10 15 1011.6 1010.6 0.4
23/05:30pm 25.8 20.3 15.8 54 6.2 NNW 39 57 21 31 1011.5 1010.5 0.0
23/05:15pm 29.7 21.8 12.6 35 10.2 NW 46 69 25 37 1010.4 1009.3 0.0
23/05:04pm 34.8 29.1 9.9 22 14.6 WNW 30 61 16 33 1010.2 1009.1 0.0
23/05:00pm 36.0 30.8 7.1 17 16.3 WSW 24 35 13 19 1009.2 1008.1 0.0
23/04:30pm 37.8 33.2 6.7 15 17.6 SW 20 32 11 17 1008.3 1007.2 0.0
23/04:00pm 38.9 33.9 4.4 12 19.0 W 20 35 11 19 1008.0 1006.9 0.0
23/03:30pm 39.2 33.8 4.6 12 19.1 WNW 22 37 12 20 1008.3 1007.2 0.0
23/03:08pm 40.9 34.1 3.3 10 20.5 WNW 28 50 15 27 1008.3 1007.2 0.0
23/03:00pm 40.8 35.4 4.6 11 20.2 WNW 22 35 12 19 1008.4 1007.4 0.0
23/02:30pm 39.6 32.9 3.7 11 19.6 NW 28 44 15 24 1008.9 1007.9 0.0
23/02:00pm 40.2 32.8 4.1 11 19.9 NW 32 50 17 27 1009.2 1008.1 0.0
23/01:35pm 40.8 33.6 3.2 10 20.5 NW 30 52 16 28 1009.3 1008.2 0.0
23/01:30pm 40.3 33.3 4.2 11 19.9 NNW 30 46 16 25 1009.3 1008.2 0.0
23/01:03pm 40.3 32.5 2.8 10 20.3 NW 33 52 18 28 1009.8 1008.7 0.0
23/01:00pm 40.6 33.1 4.4 11 20.1 NW 33 50 18 27 1009.8 1008.7 0.0
23/12:30pm 39.6 32.8 4.9 12 19.3 WNW 30 50 16 27 1010.2 1009.1 0.0
23/12:00pm 39.5 31.5 3.6 11 19.6 NW 35 57 19 31 1010.5 1009.4 0.0
23/11:30am 38.5 30.2 4.1 12 18.8 NW 37 57 20 31 1010.7 1009.7 0.0
23/11:16am 38.7 31.3 4.2 12 18.9 NNW 32 52 17 28 1010.6 1009.5 0.0
23/11:00am 38.0 30.8 4.8 13 18.3 NNW 32 43 17 23 1010.8 1009.8 0.0
23/10:30am 37.3 30.3 4.3 13 18.0 NNW 30 46 16 25 1010.8 1009.8 0.0
23/10:28am 37.0 30.6 5.1 14 17.6 NNW 28 46 15 25 1010.8 1009.8 0.0
23/10:00am 35.2 30.8 7.3 18 15.8 N 20 30 11 16 1010.9 1009.9 0.0
23/09:30am 33.1 28.7 6.4 19 14.7 N 19 28 10 15 1011.0 1010.0 0.0
23/09:00am 31.5 29.1 7.2 22 13.5 NE 9 17 5 9 1011.3 1010.3 0.0
23/08:30am 29.3 27.1 7.8 26 11.9 E 9 15 5 8 1011.2 1010.2 0.0
23/08:00am 25.4 24.2 9.7 37 8.8 SSE 6 7 3 4 1011.3 1010.3 0.0
23/07:30am 21.8 21.2 10.3 48 6.4 S 4 7 2 4 1011.2 1010.2 0.0
23/07:00am 18.0 16.9 9.9 59 4.4 S 6 9 3 5 1011.1 1010.1 0.0
23/06:30am 16.0 14.3 9.9 67 3.3 SW 9 13 5 7 1010.6 1009.5 0.0
23/06:00am 14.5 13.2 9.1 70 2.8 S 6 9 3 5 1010.5 1009.4 0.0
23/05:30am 14.9 13.4 9.1 68 3.0 SW 7 7 4 4 1010.4 1009.3 0.0
23/05:00am 15.5 14.9 9.0 65 3.4 WSW 2 9 1 5 1010.5 1009.4 0.0
23/04:30am 17.1 16.6 9.5 61 4.0 SW 2 7 1 4 1010.9 1009.9 0.0
23/04:00am 17.2 15.6 10.1 63 3.8 SSE 9 11 5 6 1011.4 1010.4 0.0
23/03:30am 18.1 17.1 8.9 55 4.9 SW 4 7 2 4 1011.4 1010.4 0.0
23/03:00am 20.7 18.5 9.3 48 6.2 ESE 11 17 6 9 1011.4 1010.4 0.0
23/02:30am 19.3 18.4 10.8 58 4.7 WNW 6 11 3 6 1013.3 1012.3 0.0
23/02:00am 16.8 16.1 10.2 65 3.6 SW 4 9 2 5 1011.4 1010.4 0.0
23/01:30am 16.2 15.1 9.8 66 3.4 SSW 6 9 3 5 1011.5 1010.5 0.0
23/01:00am 16.1 15.0 9.8 66 3.4 S 6 7 3 4 1012.1 1011.0 0.0
23/12:30am 16.0 14.6 9.7 66 3.3 S 7 13 4 7 1012.1 1011.0 0.0
23/12:00am 16.7 15.4 9.9 64 3.6 S 7 9 4 5 1012.6 1011.5 0.0
 
Date/Time
EDT
Temp
°C
App
Temp
°C
Dew
Point
Rel
Hum
%
Delta-T
°C
Wind Press
QNH
hPa
Press
MSL
hPa
Rain
since 9 am
mm
Dir
 
Spd
km/h
Gust
km/h
Spd
kts
Gust
kts
22/11:30pm 16.8 15.5 9.2 61 4.0 SSW 6 9 3 5 1012.7 1011.6 0.0
22/11:00pm 16.9 15.3 8.6 58 4.3 SW 7 9 4 5 1012.8 1011.7 0.0
22/10:30pm 18.0 16.4 8.6 54 4.9 S 7 7 4 4 1012.9 1011.8 0.0
22/10:00pm 19.1 17.4 8.4 50 5.7 SSW 7 9 4 5 1012.5 1011.4 0.0
22/09:30pm 19.9 18.4 8.3 47 6.1 S 6 7 3 4 1012.5 1011.4 0.0
22/09:00pm 21.8 19.9 6.9 38 7.8 S 6 7 3 4 1012.2 1011.1 0.0
22/08:30pm 23.5 21.5 6.3 33 9.0 S 6 7 3 4 1012.1 1011.0 0.0
22/08:00pm 26.1 23.8 5.7 27 10.7 SSW 7 9 4 5 1011.5 1010.5 0.0
22/07:30pm 30.1 26.1 4.7 20 13.4 SSW 15 19 8 10 1011.2 1010.2 0.0
22/07:00pm 32.3 28.9 4.2 17 14.9 SW 11 15 6 8 1010.9 1009.9 0.0
22/06:30pm 33.5 28.8 3.3 15 15.9 WSW 17 24 9 13 1010.5 1009.4 0.0
22/06:00pm 32.2 29.3 4.9 18 14.6 WSW 9 17 5 9 1010.0 1008.9 0.0
22/05:30pm 32.9 29.1 3.8 16 15.3 W 13 22 7 12 1010.3 1009.2 0.0
22/05:00pm 33.1 28.9 3.9 16 15.5 W 15 24 8 13 1010.5 1009.4 0.0
22/04:30pm 33.3 28.6 3.2 15 15.8 W 17 30 9 16 1010.7 1009.7 0.0
22/04:00pm 34.0 29.0 3.7 15 16.1 W 19 33 10 18 1010.7 1009.7 0.0
22/03:30pm 34.2 29.1 3.9 15 16.1 WNW 20 35 11 19 1011.0 1010.0 0.0
22/03:00pm 33.8 29.4 4.5 16 15.7 WNW 17 30 9 16 1011.0 1010.0 0.0
22/02:30pm 33.4 29.2 5.9 18 15.0 WNW 17 26 9 14 1011.2 1010.2 0.0
22/02:00pm 33.0 28.0 4.7 17 15.2 NW 20 39 11 21 1011.5 1010.5 0.0
22/01:30pm 33.4 29.6 7.4 20 14.6 NW 17 28 9 15 1012.0 1010.9 0.0
22/01:00pm 32.0 27.7 7.0 21 13.8 W 19 30 10 16 1012.2 1011.1 0.0
22/12:30pm 31.9 27.2 6.2 20 14.0 NW 20 26 11 14 1012.5 1011.4 0.0
22/12:00pm 31.4 27.9 7.1 22 13.4 WNW 15 28 8 15 1012.6 1011.5 0.0
22/11:30am 30.8 28.8 8.5 25 12.6 NW 9 19 5 10 1012.9 1011.8 0.0
22/11:00am 29.4 27.4 8.5 27 11.7 E 9 13 5 7 1013.1 1012.1 0.0
22/10:30am 28.9 27.3 10.1 31 10.8 NNW 9 17 5 9 1013.3 1012.3 0.0
22/10:00am 27.5 25.7 9.3 32 10.2 NE 9 17 5 9 1013.8 1012.8 0.0
22/09:30am 25.8 25.0 11.6 41 8.2 ESE 7 13 4 7 1014.0 1013.0 0.0
22/09:00am 24.2 23.2 12.2 47 7.0 SSE 9 13 5 7 1014.0 1013.0 0.0
22/08:30am 22.7 21.9 12.9 54 5.7 ESE 9 13 5 7 1013.9 1012.9 0.0
22/08:00am 20.2 19.1 13.2 64 4.1 S 11 13 6 7 1013.8 1012.8 0.0
22/07:30am 18.0 16.4 12.7 71 3.0 S 13 15 7 8 1013.2 1012.2 0.0

Other Formats:

Comma delimited format used in spreadsheet applications
http://www.bom.gov.au/fwo/IDN60801/IDN60801.94712.axf

JavaScript Object Notation format (JSON) in row-major order
http://www.bom.gov.au/fwo/IDN60801/IDN60801.94712.json